Terminal Aerodrome Forecast
Issued by NWS

Home | Current Version | Previous Version | Text Only | Print | Product List | Glossary On
Versions: 1 2 3 4 5 6 7 8 9 10 11 12 13 14 15 16 17 18
000
FTUS45 KBOI 011720
TAFTWF
TAF
KTWF 011720Z 0118/0218 07016KT P6SM SCT070
     FM020000 10014KT P6SM SCT070
     FM020400 15008KT P6SM FEW070=

USA.gov is the U.S. government's official web portal to all federal, state and local government web resources and services.